createdAt,value
2023-03-17T00:04:32.895Z,15.38
2023-03-17T00:14:34.476Z,15.35
2023-03-17T00:24:36.325Z,15.33
2023-03-17T00:34:38.122Z,15.32
2023-03-17T00:44:40.437Z,15.30
2023-03-17T00:54:42.287Z,15.41
2023-03-17T01:04:49.984Z,15.58
2023-03-17T01:14:54.544Z,15.83
2023-03-17T01:24:56.530Z,16.09
2023-03-17T01:34:57.974Z,16.28
2023-03-17T01:45:07.157Z,16.43
2023-03-17T01:55:17.537Z,16.55
2023-03-17T02:05:24.272Z,16.65
2023-03-17T02:15:36.591Z,16.74
2023-03-17T02:25:38.800Z,16.77
2023-03-17T02:35:40.657Z,16.65
2023-03-17T02:45:42.272Z,16.58
2023-03-17T02:55:43.814Z,16.56
2023-03-17T03:05:45.516Z,16.44
2023-03-17T03:15:47.124Z,16.29
2023-03-17T03:25:48.575Z,16.21
2023-03-17T03:35:50.005Z,16.12
2023-03-17T03:45:51.581Z,16.04
2023-03-17T03:55:53.304Z,15.99
2023-03-17T04:05:54.697Z,15.90
2023-03-17T04:15:56.301Z,15.85
2023-03-17T04:25:58.297Z,15.76
2023-03-17T04:35:59.717Z,15.72
2023-03-17T04:46:01.196Z,15.67
2023-03-17T04:56:02.642Z,15.63
2023-03-17T05:06:04.534Z,15.59
2023-03-17T05:16:06.708Z,15.68
2023-03-17T05:26:08.323Z,15.89
2023-03-17T05:36:09.804Z,16.13
2023-03-17T05:46:11.294Z,16.37
2023-03-17T05:56:13.258Z,16.60
2023-03-17T06:06:14.644Z,16.83
2023-03-17T06:16:16.500Z,16.94
2023-03-17T06:26:17.894Z,17.04
2023-03-17T06:36:19.314Z,17.12
2023-03-17T06:46:33.667Z,17.24
2023-03-17T06:56:35.273Z,17.63
2023-03-17T07:06:36.829Z,17.77
2023-03-17T07:16:38.309Z,17.97
2023-03-17T07:26:40.003Z,18.30
2023-03-17T07:36:41.579Z,18.71
2023-03-17T07:46:42.976Z,19.03
2023-03-17T07:56:44.385Z,19.28
2023-03-17T08:06:46.749Z,19.34
2023-03-17T08:16:48.434Z,19.31
2023-03-17T08:26:50.371Z,19.48
2023-03-17T08:36:52.370Z,19.60
2023-03-17T08:46:53.763Z,19.87
2023-03-17T08:56:55.198Z,20.09
2023-03-17T09:07:03.742Z,20.21
2023-03-17T09:17:06.130Z,20.18
2023-03-17T09:27:07.617Z,20.20
2023-03-17T09:37:09.654Z,20.29
2023-03-17T09:47:42.675Z,20.80
2023-03-17T09:57:44.310Z,21.28
2023-03-17T10:08:22.760Z,21.50
2023-03-17T10:18:31.953Z,20.65
2023-03-17T10:28:38.692Z,20.21
2023-03-17T10:38:40.267Z,20.09
2023-03-17T10:48:41.652Z,20.03
2023-03-17T10:58:50.344Z,20.02
2023-03-17T11:08:55.086Z,19.98
2023-03-17T11:18:57.750Z,19.87
2023-03-17T11:29:36.813Z,19.90
2023-03-17T11:39:45.895Z,19.92
2023-03-17T11:49:52.808Z,19.89
2023-03-17T11:59:56.510Z,19.90
2023-03-17T12:10:23.102Z,19.92
2023-03-17T12:20:32.338Z,19.95
2023-03-17T12:30:54.559Z,19.97
2023-03-17T12:41:11.694Z,19.99
2023-03-17T12:51:17.472Z,20.00
2023-03-17T13:01:32.400Z,20.02
2023-03-17T13:11:37.201Z,20.03
2023-03-17T13:21:39.101Z,19.96
2023-03-17T13:31:40.531Z,19.89
2023-03-17T13:41:50.695Z,19.81
2023-03-17T13:52:00.248Z,19.75
2023-03-17T14:02:06.693Z,19.66
2023-03-17T14:12:27.250Z,19.59
2023-03-17T14:22:28.828Z,19.51
2023-03-17T14:32:30.284Z,19.46
2023-03-17T14:42:31.776Z,19.39
2023-03-17T14:52:35.715Z,19.36
2023-03-17T15:02:37.945Z,19.29
2023-03-17T15:12:39.479Z,19.21
2023-03-17T15:22:42.157Z,19.16
2023-03-17T15:32:43.610Z,19.12
2023-03-17T15:42:45.549Z,19.02
2023-03-17T15:52:47.389Z,18.97
2023-03-17T16:02:50.662Z,18.89
2023-03-17T16:12:52.127Z,18.83
2023-03-17T16:22:54.488Z,18.80
2023-03-17T16:32:59.625Z,18.75
2023-03-17T16:43:03.159Z,18.68
2023-03-17T16:53:05.438Z,18.60
2023-03-17T17:03:07.017Z,18.54
2023-03-17T17:13:08.782Z,18.48
2023-03-17T17:23:12.150Z,18.42
2023-03-17T17:33:14.369Z,18.37
2023-03-17T17:43:18.038Z,18.30
2023-03-17T17:53:19.499Z,18.25
2023-03-17T18:03:24.476Z,18.21
2023-03-17T18:13:25.923Z,18.18
2023-03-17T18:23:28.868Z,18.12
2023-03-17T18:33:30.264Z,18.06
2023-03-17T18:43:31.713Z,18.03
2023-03-17T18:53:34.484Z,18.01
2023-03-17T19:03:36.198Z,17.94
2023-03-17T19:13:37.812Z,17.93
2023-03-17T19:23:39.779Z,17.90
2023-03-17T19:33:41.312Z,17.84
2023-03-17T19:43:42.690Z,17.82
2023-03-17T19:53:44.257Z,17.80
2023-03-17T20:03:45.647Z,17.77
2023-03-17T20:13:47.107Z,17.74
2023-03-17T20:23:48.492Z,17.73
2023-03-17T20:33:50.485Z,17.69
2023-03-17T20:43:52.168Z,17.66
2023-03-17T20:53:53.752Z,17.64
2023-03-17T21:03:55.257Z,17.63
2023-03-17T21:13:56.693Z,17.60
2023-03-17T21:23:58.199Z,17.58
2023-03-17T21:33:59.615Z,17.53
2023-03-17T21:44:01.565Z,17.51
2023-03-17T21:54:03.805Z,17.46
2023-03-17T22:04:05.195Z,17.43
2023-03-17T22:14:06.622Z,17.41
2023-03-17T22:24:09.958Z,17.41
2023-03-17T22:34:11.440Z,17.37
2023-03-17T22:44:13.010Z,17.37
2023-03-17T22:54:14.479Z,17.34
2023-03-17T23:04:16.552Z,17.29
2023-03-17T23:14:17.979Z,17.29
2023-03-17T23:24:19.538Z,17.24
2023-03-17T23:34:21.116Z,17.24
2023-03-17T23:44:22.534Z,17.21
2023-03-17T23:54:24.100Z,17.20
